createdAt,value
2018-11-20T00:00:25.942Z,75.55
2018-11-20T00:01:06.488Z,75.64
2018-11-20T00:01:47.050Z,75.26
2018-11-20T00:02:27.610Z,75.64
2018-11-20T00:03:08.171Z,75.55
2018-11-20T00:03:48.738Z,75.17
2018-11-20T00:04:29.305Z,74.88
2018-11-20T00:05:09.877Z,74.79
2018-11-20T00:05:50.467Z,74.79
2018-11-20T00:06:31.011Z,74.79
2018-11-20T00:07:11.581Z,74.88
2018-11-20T00:07:52.135Z,74.88
2018-11-20T00:08:32.689Z,74.79
2018-11-20T00:09:13.253Z,74.41
2018-11-20T00:09:53.839Z,74.51
2018-11-20T00:10:34.398Z,74.51
2018-11-20T00:11:15.031Z,74.51
2018-11-20T00:11:55.609Z,74.22
2018-11-20T00:12:36.176Z,74.6
2018-11-20T00:13:16.758Z,74.13
2018-11-20T00:13:57.328Z,74.13
2018-11-20T00:14:37.901Z,73.94
2018-11-20T00:15:18.464Z,74.13
2018-11-20T00:15:59.026Z,74.6
2018-11-20T00:16:39.589Z,74.13
2018-11-20T00:17:20.233Z,73.84
2018-11-20T00:18:00.841Z,74.13
2018-11-20T00:18:41.429Z,74.03
2018-11-20T00:19:22.032Z,74.41
2018-11-20T00:20:02.601Z,74.51
2018-11-20T00:20:43.163Z,74.6
2018-11-20T00:21:23.818Z,74.32
2018-11-20T00:22:04.295Z,74.41
2018-11-20T00:22:44.863Z,74.13
2018-11-20T00:23:25.414Z,74.32
2018-11-20T00:24:05.965Z,73.94
2018-11-20T00:24:46.523Z,74.03
2018-11-20T00:25:27.122Z,74.41
2018-11-20T00:26:07.681Z,73.84
2018-11-20T00:26:48.294Z,74.13
2018-11-20T00:27:28.891Z,74.03
2018-11-20T00:28:09.454Z,74.32
2018-11-20T00:28:50.008Z,74.22
2018-11-20T00:29:30.593Z,74.22
2018-11-20T00:30:11.139Z,74.22
2018-11-20T00:30:51.724Z,74.03
2018-11-20T00:31:32.292Z,74.13
2018-11-20T00:32:12.847Z,74.22
2018-11-20T00:32:53.391Z,74.6
2018-11-20T00:33:33.938Z,74.13
2018-11-20T00:34:14.510Z,74.22
2018-11-20T00:34:55.074Z,74.41
2018-11-20T00:35:35.651Z,74.32
2018-11-20T00:36:16.217Z,74.51
2018-11-20T00:36:56.777Z,74.6
2018-11-20T00:37:37.352Z,74.51
2018-11-20T00:38:17.943Z,74.32
2018-11-20T00:38:58.523Z,74.13
2018-11-20T00:39:39.179Z,74.51
2018-11-20T00:40:19.746Z,74.32
2018-11-20T00:41:00.315Z,74.22
2018-11-20T00:41:40.857Z,74.6
2018-11-20T00:42:21.453Z,73.94
2018-11-20T00:43:02.014Z,74.41
2018-11-20T00:43:42.601Z,74.51
2018-11-20T00:44:23.192Z,74.69
2018-11-20T00:45:03.828Z,73.94
2018-11-20T00:45:44.416Z,74.13
2018-11-20T00:46:25.103Z,74.03
2018-11-20T00:47:05.721Z,74.13
2018-11-20T00:47:46.334Z,73.94
2018-11-20T00:48:26.883Z,74.22
2018-11-20T00:49:07.443Z,74.51
2018-11-20T00:49:47.991Z,74.41
2018-11-20T00:50:28.553Z,74.32
2018-11-20T00:51:09.149Z,74.51
2018-11-20T00:51:49.701Z,73.94
2018-11-20T00:52:30.347Z,73.94
2018-11-20T00:53:11.033Z,74.22
2018-11-20T00:53:51.683Z,74.13
2018-11-20T00:54:32.370Z,73.94
2018-11-20T00:55:12.945Z,74.22
2018-11-20T00:55:53.512Z,74.22
2018-11-20T00:56:34.658Z,74.32
2018-11-20T00:57:15.304Z,73.46
2018-11-20T00:57:55.924Z,73.56
2018-11-20T00:58:36.488Z,73.65
2018-11-20T00:59:17.140Z,73.84
2018-11-20T00:59:57.728Z,73.56
2018-11-20T01:00:38.293Z,73.46
2018-11-20T01:01:18.841Z,73.46
2018-11-20T01:01:59.416Z,73.18
2018-11-20T01:02:39.975Z,73.37
2018-11-20T01:03:20.522Z,73.46
2018-11-20T01:04:01.090Z,73.46
2018-11-20T01:04:41.681Z,73.46
2018-11-20T01:05:22.289Z,73.65
2018-11-20T01:06:02.832Z,73.84
2018-11-20T01:06:43.435Z,73.46
2018-11-20T01:07:24.038Z,73.84
2018-11-20T01:08:04.626Z,73.75
2018-11-20T01:08:45.220Z,73.84
2018-11-20T01:09:25.873Z,73.65
2018-11-20T01:10:06.434Z,73.75
2018-11-20T01:10:47.057Z,73.65
2018-11-20T01:11:27.614Z,73.56
2018-11-20T01:12:08.160Z,73.75
2018-11-20T01:12:48.721Z,73.37
2018-11-20T01:13:29.281Z,73.65
2018-11-20T01:14:09.846Z,73.75
2018-11-20T01:14:50.658Z,74.32
2018-11-20T01:15:31.218Z,74.22
2018-11-20T01:16:11.782Z,74.13
2018-11-20T01:16:52.336Z,73.84
2018-11-20T01:17:32.895Z,73.56
2018-11-20T01:18:13.521Z,73.27
2018-11-20T01:18:54.094Z,73.37
2018-11-20T01:19:34.698Z,73.46
2018-11-20T01:20:15.265Z,74.22
2018-11-20T01:20:55.815Z,74.22
2018-11-20T01:21:36.405Z,74.32
2018-11-20T01:22:16.962Z,73.75
2018-11-20T01:22:57.534Z,73.37
2018-11-20T01:23:38.095Z,73.56
2018-11-20T01:24:18.647Z,73.56
2018-11-20T01:24:59.245Z,73.46
2018-11-20T01:25:39.816Z,74.03
2018-11-20T01:26:20.385Z,74.32
2018-11-20T01:27:01.008Z,73.94
2018-11-20T01:27:41.590Z,74.22
2018-11-20T01:28:22.157Z,74.41
2018-11-20T01:29:02.773Z,74.41
2018-11-20T01:29:43.372Z,74.6
2018-11-20T01:30:23.921Z,74.51
2018-11-20T01:31:04.542Z,74.13
2018-11-20T01:31:45.133Z,74.6
2018-11-20T01:32:25.658Z,74.13
2018-11-20T01:33:06.218Z,74.22
2018-11-20T01:33:46.770Z,74.03
2018-11-20T01:34:27.324Z,74.41
2018-11-20T01:35:07.913Z,74.41
2018-11-20T01:35:48.460Z,74.51
2018-11-20T01:36:29.002Z,74.41
2018-11-20T01:37:09.572Z,74.41
2018-11-20T01:37:50.128Z,74.6
2018-11-20T01:38:30.689Z,74.88
2018-11-20T01:39:11.251Z,74.98
2018-11-20T01:39:51.803Z,74.79
2018-11-20T01:40:32.364Z,74.88
2018-11-20T01:41:12.930Z,74.88
2018-11-20T01:41:53.470Z,74.32
2018-11-20T01:42:34.046Z,74.88
2018-11-20T01:43:14.613Z,74.6
2018-11-20T01:43:55.163Z,74.79
2018-11-20T01:44:35.740Z,74.88
2018-11-20T01:45:16.311Z,74.98
2018-11-20T01:45:56.861Z,74.98
2018-11-20T01:46:37.437Z,74.79
2018-11-20T01:47:18.026Z,74.56
2018-11-20T01:47:58.590Z,74.88
2018-11-20T01:48:39.142Z,74.79
2018-11-20T01:49:19.702Z,74.28
2018-11-20T01:50:00.289Z,74.79
2018-11-20T01:50:40.873Z,74.69
2018-11-20T01:51:21.478Z,74.41
2018-11-20T01:52:02.020Z,74.28
2018-11-20T01:52:42.589Z,74.6
2018-11-20T01:53:23.254Z,74.37
2018-11-20T01:54:03.838Z,74.56
2018-11-20T01:54:44.483Z,74.56
2018-11-20T01:55:25.070Z,74.47
2018-11-20T01:56:05.622Z,74.37
2018-11-20T01:56:46.272Z,74.47
2018-11-20T01:57:26.833Z,74.47
2018-11-20T01:58:07.401Z,74.37
2018-11-20T01:58:47.952Z,74.18
2018-11-20T01:59:28.508Z,74.09
2018-11-20T02:00:09.066Z,74.47
2018-11-20T02:00:49.666Z,74.37
2018-11-20T02:01:30.280Z,74.56
2018-11-20T02:02:10.974Z,74.37
2018-11-20T02:02:51.551Z,74.37
2018-11-20T02:03:32.119Z,74.47
2018-11-20T02:04:12.809Z,74.37
2018-11-20T02:04:53.231Z,74.75
2018-11-20T02:05:33.787Z,74.56
2018-11-20T02:06:14.410Z,74.41
2018-11-20T02:06:54.968Z,74.47
2018-11-20T02:07:35.528Z,74.47
2018-11-20T02:08:16.077Z,74.37
2018-11-20T02:08:56.652Z,74.18
2018-11-20T02:09:37.233Z,74.18
2018-11-20T02:10:17.781Z,74.37
2018-11-20T02:10:58.365Z,74.47
2018-11-20T02:11:38.900Z,73.9
2018-11-20T02:12:19.446Z,74.18
2018-11-20T02:13:00.007Z,73.94
2018-11-20T02:13:40.556Z,73.9
2018-11-20T02:14:21.113Z,74.18
2018-11-20T02:15:01.673Z,74.28
2018-11-20T02:15:42.254Z,74.18
2018-11-20T02:16:22.801Z,74.37
2018-11-20T02:17:03.361Z,74.37
2018-11-20T02:17:43.902Z,73.99
2018-11-20T02:18:24.544Z,74.09
2018-11-20T02:19:05.091Z,73.9
2018-11-20T02:19:45.649Z,74.18
2018-11-20T02:20:26.199Z,73.99
2018-11-20T02:21:06.758Z,74.18
2018-11-20T02:21:47.325Z,73.8
2018-11-20T02:22:27.901Z,74.56
2018-11-20T02:23:08.485Z,74.37
2018-11-20T02:23:49.072Z,74.37
2018-11-20T02:24:29.717Z,74.37
2018-11-20T02:25:10.349Z,74.18
2018-11-20T02:25:50.995Z,74.09
2018-11-20T02:26:31.567Z,74.18
2018-11-20T02:27:12.130Z,74.28
2018-11-20T02:27:52.668Z,74.18
2018-11-20T02:28:33.236Z,73.9
2018-11-20T02:29:13.816Z,74.18
2018-11-20T02:29:54.373Z,74.09
2018-11-20T02:30:34.964Z,74.18
2018-11-20T02:31:15.517Z,74.28
2018-11-20T02:31:56.122Z,73.99
2018-11-20T02:32:36.669Z,74.18
2018-11-20T02:33:17.215Z,74.09
2018-11-20T02:33:57.777Z,73.8
2018-11-20T02:34:38.334Z,73.43
2018-11-20T02:35:18.882Z,73.43
2018-11-20T02:35:59.449Z,73.43
2018-11-20T02:36:40.004Z,73.8
2018-11-20T02:37:20.607Z,73.61
2018-11-20T02:38:01.200Z,73.61
2018-11-20T02:38:41.760Z,73.61
2018-11-20T02:39:22.312Z,73.8
2018-11-20T02:40:02.892Z,73.61
2018-11-20T02:40:43.469Z,73.52
2018-11-20T02:41:24.079Z,73.9
2018-11-20T02:42:04.652Z,73.43
2018-11-20T02:42:45.202Z,73.43
2018-11-20T02:43:25.760Z,73.61
2018-11-20T02:44:06.325Z,73.8
2018-11-20T02:44:46.886Z,73.99
2018-11-20T02:45:27.441Z,73.71
2018-11-20T02:46:07.996Z,73.61
2018-11-20T02:46:48.534Z,73.61
2018-11-20T02:47:29.687Z,73.52
2018-11-20T02:48:10.232Z,73.71
2018-11-20T02:48:51.959Z,73.33
2018-11-20T02:49:32.504Z,73.9
2018-11-20T02:50:13.076Z,73.8
2018-11-20T02:50:54.026Z,73.61
2018-11-20T02:51:34.339Z,73.33
2018-11-20T02:52:14.796Z,73.33
2018-11-20T02:52:55.415Z,73.24
2018-11-20T02:53:35.997Z,73.33
2018-11-20T02:54:16.559Z,73.43
2018-11-20T02:54:57.117Z,73.43
2018-11-20T02:55:37.672Z,73.9
2018-11-20T02:56:18.238Z,73.8
2018-11-20T02:56:58.786Z,73.8
2018-11-20T02:57:39.407Z,73.99
2018-11-20T02:58:20.015Z,73.99
2018-11-20T02:59:00.580Z,73.99
2018-11-20T02:59:41.143Z,73.61
2018-11-20T03:00:21.703Z,73.61
2018-11-20T03:01:02.248Z,73.71
2018-11-20T03:01:42.809Z,73.8
2018-11-20T03:02:23.392Z,73.9
2018-11-20T03:03:03.969Z,73.8
2018-11-20T03:03:44.655Z,73.52
2018-11-20T03:04:25.177Z,73.43
2018-11-20T03:05:05.756Z,73.43
2018-11-20T03:05:46.316Z,73.71
2018-11-20T03:06:27.158Z,73.24
2018-11-20T03:07:07.665Z,73.52
2018-11-20T03:07:48.302Z,73.24
2018-11-20T03:08:28.842Z,72.86
2018-11-20T03:09:09.436Z,73.24
2018-11-20T03:09:50.021Z,73.14
2018-11-20T03:10:30.586Z,73.52
2018-11-20T03:11:11.160Z,73.24
2018-11-20T03:11:51.729Z,73.33
2018-11-20T03:12:32.302Z,73.14
2018-11-20T03:13:12.860Z,73.14
2018-11-20T03:13:53.408Z,73.52
2018-11-20T03:14:33.990Z,73.61
2018-11-20T03:15:14.698Z,73.43
2018-11-20T03:15:55.249Z,73.52
2018-11-20T03:16:35.804Z,73.52
2018-11-20T03:17:16.392Z,73.33
2018-11-20T03:17:56.970Z,73.33
2018-11-20T03:18:37.530Z,73.24
2018-11-20T03:19:18.093Z,73.05
2018-11-20T03:19:58.671Z,73.43
2018-11-20T03:20:39.289Z,73.99
2018-11-20T03:21:19.844Z,73.52
2018-11-20T03:22:00.413Z,73.71
2018-11-20T03:22:40.975Z,73.9
2018-11-20T03:23:21.539Z,73.52
2018-11-20T03:24:02.096Z,73.52
2018-11-20T03:24:42.652Z,73.61
2018-11-20T03:25:23.226Z,73.61
2018-11-20T03:26:03.806Z,73.52
2018-11-20T03:26:44.468Z,73.05
2018-11-20T03:27:24.961Z,73.24
2018-11-20T03:28:05.526Z,73.43
2018-11-20T03:28:46.090Z,73.43
2018-11-20T03:29:26.661Z,73.43
2018-11-20T03:30:07.244Z,73.05
2018-11-20T03:30:47.794Z,73.14
2018-11-20T03:31:28.366Z,73.52
2018-11-20T03:32:08.921Z,73.52
2018-11-20T03:32:49.508Z,73.61
2018-11-20T03:33:30.170Z,73.14
2018-11-20T03:34:10.808Z,73.33
2018-11-20T03:34:51.362Z,73.52
2018-11-20T03:35:31.912Z,73.61
2018-11-20T03:36:12.574Z,73.61
2018-11-20T03:36:53.052Z,73.43
2018-11-20T03:37:33.601Z,73.52
2018-11-20T03:38:14.174Z,73.99
2018-11-20T03:38:54.738Z,73.61
2018-11-20T03:39:35.295Z,73.71
2018-11-20T03:40:15.869Z,73.99
2018-11-20T03:40:56.428Z,73.71
2018-11-20T03:41:37.003Z,73.8
2018-11-20T03:42:17.555Z,73.9
2018-11-20T03:42:58.159Z,73.43
2018-11-20T03:43:38.759Z,73.61
2018-11-20T03:44:19.326Z,73.43
2018-11-20T03:44:59.894Z,73.9
2018-11-20T03:45:40.451Z,73.9
2018-11-20T03:46:21.054Z,73.9
2018-11-20T03:47:01.609Z,74.09
2018-11-20T03:47:42.197Z,74.28
2018-11-20T03:48:22.745Z,74.09
2018-11-20T03:49:03.294Z,73.9
2018-11-20T03:49:43.849Z,74.28
2018-11-20T03:50:24.486Z,74.09
2018-11-20T03:51:05.043Z,73.9
2018-11-20T03:51:45.659Z,74.09
2018-11-20T03:52:26.268Z,74.47
2018-11-20T03:53:06.963Z,74.37
2018-11-20T03:53:47.572Z,74.37
2018-11-20T03:54:28.348Z,74.09
2018-11-20T03:55:09.028Z,74.37
2018-11-20T03:55:49.731Z,74.56
2018-11-20T03:56:30.288Z,74.47
2018-11-20T03:57:10.860Z,74.85
2018-11-20T03:57:51.438Z,74.85
2018-11-20T03:58:32.020Z,75.13
2018-11-20T03:59:12.577Z,74.85
2018-11-20T03:59:53.150Z,75.51
2018-11-20T04:00:33.753Z,75.51
2018-11-20T04:01:14.344Z,75.42
2018-11-20T04:01:54.953Z,75.42
2018-11-20T04:02:35.508Z,75.42
2018-11-20T04:03:16.075Z,75.23
2018-11-20T04:03:56.630Z,75.23
2018-11-20T04:04:37.186Z,75.42
2018-11-20T04:05:17.738Z,75.7
2018-11-20T04:05:58.333Z,75.89
2018-11-20T04:06:38.970Z,75.7
2018-11-20T04:07:19.528Z,76.08
2018-11-20T04:08:00.081Z,75.98
2018-11-20T04:08:40.644Z,76.17
2018-11-20T04:09:21.199Z,76.46
2018-11-20T04:10:01.752Z,76.36
2018-11-20T04:10:42.316Z,76.65
2018-11-20T04:11:22.885Z,76.46
2018-11-20T04:12:03.449Z,76.46
2018-11-20T04:12:44.005Z,76.65
2018-11-20T04:13:24.570Z,76.84
2018-11-20T04:14:05.161Z,76.74
2018-11-20T04:14:45.726Z,76.74
2018-11-20T04:15:26.277Z,76.65
2018-11-20T04:16:06.887Z,76.46
2018-11-20T04:16:47.458Z,76.93
2018-11-20T04:17:28.046Z,76.93
2018-11-20T04:18:08.615Z,77.03
2018-11-20T04:18:49.245Z,77.03
2018-11-20T04:19:29.915Z,76.65
2018-11-20T04:20:10.537Z,77.03
2018-11-20T04:20:51.209Z,76.84
2018-11-20T04:21:31.878Z,77.03
2018-11-20T04:22:12.459Z,76.93
2018-11-20T04:22:53.099Z,77.03
2018-11-20T04:23:33.666Z,76.93
2018-11-20T04:24:14.225Z,77.59
2018-11-20T04:24:54.769Z,77.31
2018-11-20T04:25:35.319Z,77.69
2018-11-20T04:26:15.902Z,77.69
2018-11-20T04:26:56.463Z,77.5
2018-11-20T04:27:37.038Z,77.78
2018-11-20T04:28:17.669Z,77.78
2018-11-20T04:28:58.346Z,77.5
2018-11-20T04:29:38.879Z,77.4
2018-11-20T04:30:19.452Z,77.69
2018-11-20T04:31:00.125Z,77.59
2018-11-20T04:31:40.716Z,77.69
2018-11-20T04:32:21.331Z,77.69
2018-11-20T04:33:01.894Z,77.5
2018-11-20T04:33:42.462Z,77.59
2018-11-20T04:34:23.023Z,77.5
2018-11-20T04:35:03.592Z,77.88
2018-11-20T04:35:44.198Z,77.88
2018-11-20T04:36:24.752Z,77.78
2018-11-20T04:37:05.330Z,77.88
2018-11-20T04:37:45.901Z,77.59
2018-11-20T04:38:26.484Z,77.59
2018-11-20T04:39:07.045Z,77.4
2018-11-20T04:39:47.614Z,77.88
2018-11-20T04:40:28.172Z,77.59
2018-11-20T04:41:08.735Z,77.69
2018-11-20T04:41:49.279Z,77.5
2018-11-20T04:42:29.911Z,77.31
2018-11-20T04:43:10.432Z,77.4
2018-11-20T04:43:50.969Z,77.4
2018-11-20T04:44:31.523Z,77.69
2018-11-20T04:45:12.110Z,77.69
2018-11-20T04:45:52.679Z,77.97
2018-11-20T04:46:33.252Z,77.88
2018-11-20T04:47:13.807Z,77.78
2018-11-20T04:47:54.413Z,78.54
2018-11-20T04:48:34.992Z,77.78
2018-11-20T04:49:15.550Z,78.54
2018-11-20T04:49:56.203Z,78.35
2018-11-20T04:50:36.750Z,77.69
2018-11-20T04:51:17.347Z,77.97
2018-11-20T04:51:57.937Z,77.69
2018-11-20T04:52:38.527Z,77.5
2018-11-20T04:53:19.148Z,77.78
2018-11-20T04:53:59.731Z,77.59
2018-11-20T04:54:40.289Z,77.59
2018-11-20T04:55:20.838Z,77.59
2018-11-20T04:56:01.431Z,77.88
2018-11-20T04:56:41.995Z,77.59
2018-11-20T04:57:22.770Z,77.59
2018-11-20T04:58:03.388Z,77.4
2018-11-20T04:58:43.999Z,77.59
2018-11-20T04:59:24.624Z,77.69
2018-11-20T05:00:05.249Z,77.69
2018-11-20T05:00:45.797Z,77.59
2018-11-20T05:01:26.361Z,77.5
2018-11-20T05:02:06.957Z,77.5
2018-11-20T05:02:47.509Z,77.88
2018-11-20T05:03:28.109Z,77.88
2018-11-20T05:04:08.661Z,77.4
2018-11-20T05:04:49.230Z,77.4
2018-11-20T05:05:29.785Z,77.4
2018-11-20T05:06:10.350Z,77.88
2018-11-20T05:06:51.009Z,77.4
2018-11-20T05:07:31.461Z,77.5
2018-11-20T05:08:12.028Z,77.88
2018-11-20T05:08:52.588Z,77.31
2018-11-20T05:09:33.213Z,77.4
2018-11-20T05:10:13.781Z,77.5
2018-11-20T05:10:54.373Z,77.69
2018-11-20T05:11:34.919Z,77.12
2018-11-20T05:12:15.474Z,76.93
2018-11-20T05:12:56.032Z,77.22
2018-11-20T05:13:36.605Z,76.93
2018-11-20T05:14:17.166Z,76.93
2018-11-20T05:14:57.717Z,77.22
2018-11-20T05:15:38.302Z,77.03
2018-11-20T05:16:18.862Z,76.93
2018-11-20T05:16:59.480Z,76.93
2018-11-20T05:17:40.043Z,76.74
2018-11-20T05:18:20.603Z,77.22
2018-11-20T05:19:01.146Z,76.84
2018-11-20T05:19:41.749Z,76.93
2018-11-20T05:20:22.283Z,77.12
2018-11-20T05:21:02.957Z,76.84
2018-11-20T05:21:43.592Z,77.03
2018-11-20T05:22:24.184Z,77.88
2018-11-20T05:23:04.786Z,77.69
2018-11-20T05:23:45.315Z,77.69
2018-11-20T05:24:25.874Z,77.69
2018-11-20T05:25:06.424Z,77.5
2018-11-20T05:25:46.978Z,77.59
2018-11-20T05:26:27.549Z,76.93
2018-11-20T05:27:08.098Z,77.03
2018-11-20T05:27:48.679Z,77.03
2018-11-20T05:28:29.224Z,76.84
2018-11-20T05:29:09.764Z,77.22
2018-11-20T05:29:50.342Z,77.12
2018-11-20T05:30:30.884Z,77.5
2018-11-20T05:31:11.661Z,77.59
2018-11-20T05:31:52.202Z,77.03
2018-11-20T05:32:32.783Z,77.22
2018-11-20T05:33:13.422Z,76.93
2018-11-20T05:33:53.993Z,77.12
2018-11-20T05:34:34.548Z,77.59
2018-11-20T05:35:15.113Z,77.69
2018-11-20T05:35:55.680Z,77.69
2018-11-20T05:36:36.237Z,77.31
2018-11-20T05:37:16.821Z,77.88
2018-11-20T05:37:57.428Z,77.69
2018-11-20T05:38:38.119Z,77.59
2018-11-20T05:39:18.691Z,77.88
2018-11-20T05:39:59.326Z,77.69
2018-11-20T05:40:39.911Z,77.4
2018-11-20T05:41:20.470Z,77.59
2018-11-20T05:42:01.045Z,77.4
2018-11-20T05:42:41.599Z,78.07
2018-11-20T05:43:22.162Z,77.88
2018-11-20T05:44:02.709Z,77.4
2018-11-20T05:44:43.278Z,77.78
2018-11-20T05:45:23.829Z,77.31
2018-11-20T05:46:04.403Z,77.59
2018-11-20T05:46:45.096Z,76.84
2018-11-20T05:47:25.565Z,76.84
2018-11-20T05:48:06.223Z,77.88
2018-11-20T05:48:46.854Z,77.78
2018-11-20T05:49:27.331Z,77.03
2018-11-20T05:50:07.891Z,77.03
2018-11-20T05:50:48.467Z,76.93
2018-11-20T05:51:29.025Z,77.03
2018-11-20T05:52:09.577Z,77.88
2018-11-20T05:52:50.188Z,77.69
2018-11-20T05:53:30.747Z,77.5
2018-11-20T05:54:11.330Z,77.5
2018-11-20T05:54:51.863Z,77.31
2018-11-20T05:55:32.431Z,77.5
2018-11-20T05:56:12.999Z,77.69
2018-11-20T05:56:53.548Z,77.5
2018-11-20T05:57:34.099Z,77.78
2018-11-20T05:58:14.747Z,77.59
2018-11-20T05:58:55.219Z,77.69
2018-11-20T05:59:35.785Z,77.69
2018-11-20T06:00:16.394Z,77.78
2018-11-20T06:00:56.944Z,77.4
2018-11-20T06:01:37.497Z,77.5
2018-11-20T06:02:18.064Z,77.4
2018-11-20T06:02:58.627Z,76.93
2018-11-20T06:03:39.195Z,77.88
2018-11-20T06:04:19.727Z,77.59
2018-11-20T06:05:00.323Z,76.84
2018-11-20T06:05:41.048Z,76.93
2018-11-20T06:06:21.631Z,77.03
2018-11-20T06:07:02.268Z,77.03
2018-11-20T06:07:42.902Z,77.03
2018-11-20T06:08:23.457Z,77.03
2018-11-20T06:09:04.032Z,76.84
2018-11-20T06:09:44.604Z,77.03
2018-11-20T06:10:25.256Z,77.59
2018-11-20T06:11:05.914Z,77.59
2018-11-20T06:11:46.458Z,77.5
2018-11-20T06:12:27.116Z,77.78
2018-11-20T06:13:07.684Z,77.59
2018-11-20T06:13:48.261Z,77.78
2018-11-20T06:14:28.887Z,77.78
2018-11-20T06:15:09.419Z,77.59
2018-11-20T06:15:49.975Z,77.5
2018-11-20T06:16:30.553Z,77.88
2018-11-20T06:17:11.121Z,77.88
2018-11-20T06:17:51.691Z,77.5
2018-11-20T06:18:32.253Z,77.31
2018-11-20T06:19:12.814Z,78.07
2018-11-20T06:19:53.388Z,77.97
2018-11-20T06:20:33.944Z,77.97
2018-11-20T06:21:14.517Z,77.5
2018-11-20T06:21:55.161Z,77.4
2018-11-20T06:22:35.749Z,77.31
2018-11-20T06:23:16.314Z,77.78
2018-11-20T06:23:56.885Z,77.69
2018-11-20T06:24:37.443Z,77.4
2018-11-20T06:25:18.006Z,77.78
2018-11-20T06:25:58.692Z,77.69
2018-11-20T06:26:39.240Z,77.31
2018-11-20T06:27:19.842Z,77.5
2018-11-20T06:28:00.396Z,77.31
2018-11-20T06:28:41.099Z,77.5
2018-11-20T06:29:21.678Z,77.5
2018-11-20T06:30:02.173Z,77.4
2018-11-20T06:30:43.214Z,77.5
2018-11-20T06:31:23.817Z,77.59
2018-11-20T06:32:04.366Z,77.69
2018-11-20T06:32:45.204Z,77.59
2018-11-20T06:33:26.453Z,77.69
2018-11-20T06:34:07.562Z,77.22
2018-11-20T06:34:49.008Z,77.59
2018-11-20T06:35:29.661Z,77.4
2018-11-20T06:36:10.448Z,77.59
2018-11-20T06:36:51.034Z,77.69
2018-11-20T06:37:31.702Z,77.78
2018-11-20T06:38:12.284Z,77.69
2018-11-20T06:38:53.204Z,77.88
2018-11-20T06:39:33.943Z,77.59
2018-11-20T06:40:14.799Z,77.69
2018-11-20T06:40:55.669Z,78.07
2018-11-20T06:41:36.461Z,77.59
2018-11-20T06:42:17.142Z,77.88
2018-11-20T06:42:58.256Z,77.69
2018-11-20T06:43:38.819Z,77.69
2018-11-20T06:44:19.431Z,77.5
2018-11-20T06:45:00.121Z,77.4
2018-11-20T06:45:40.787Z,77.5
2018-11-20T06:46:21.355Z,77.69
2018-11-20T06:47:01.945Z,77.4
2018-11-20T06:47:42.489Z,77.5
2018-11-20T06:48:23.215Z,77.4
2018-11-20T06:49:04.010Z,77.97
2018-11-20T06:49:44.586Z,78.07
2018-11-20T06:50:25.119Z,77.69
2018-11-20T06:51:05.683Z,77.78
2018-11-20T06:51:46.270Z,77.78
2018-11-20T06:52:26.823Z,77.59
2018-11-20T06:53:07.514Z,77.78
2018-11-20T06:53:48.065Z,78.54
2018-11-20T06:54:28.646Z,78.35
2018-11-20T06:55:09.388Z,77.59
2018-11-20T06:55:49.940Z,78.07
2018-11-20T06:56:30.490Z,78.26
2018-11-20T06:57:11.086Z,78.26
2018-11-20T06:57:51.615Z,78.35
2018-11-20T06:58:32.197Z,78.16
2018-11-20T06:59:16.328Z,78.45
2018-11-20T06:59:56.873Z,78.35
2018-11-20T07:00:37.437Z,78.07
2018-11-20T07:01:18.021Z,80.15
2018-11-20T07:01:58.564Z,83.8
2018-11-20T07:02:39.184Z,84.65
2018-11-20T07:03:19.745Z,81.9
2018-11-20T07:04:00.319Z,82.18
2018-11-20T07:04:40.881Z,84.84
2018-11-20T07:05:21.440Z,83.98
2018-11-20T07:06:02.030Z,81.18
2018-11-20T07:06:42.581Z,78.62
2018-11-20T07:07:23.331Z,79.1
2018-11-20T07:08:03.781Z,81.56
2018-11-20T07:08:44.374Z,79.76
2018-11-20T07:09:24.845Z,80.9
2018-11-20T07:10:05.401Z,81.75
2018-11-20T07:10:45.954Z,81.37
2018-11-20T07:11:26.518Z,79.23
2018-11-20T07:12:07.095Z,77.71
2018-11-20T07:12:47.630Z,75.05
2018-11-20T07:13:28.222Z,74.87
2018-11-20T07:14:08.805Z,75.53
2018-11-20T07:14:49.354Z,75.62
2018-11-20T07:15:30.179Z,74.68
2018-11-20T07:16:10.774Z,74.3
2018-11-20T07:16:51.159Z,73.63
2018-11-20T07:17:31.708Z,72.74
2018-11-20T07:18:12.274Z,72.74
2018-11-20T07:18:52.837Z,73.22
2018-11-20T07:19:33.402Z,73.6
2018-11-20T07:20:13.969Z,74.54
2018-11-20T07:20:54.514Z,75.21
2018-11-20T07:21:35.077Z,76.06
2018-11-20T07:22:15.639Z,75.78
2018-11-20T07:22:56.201Z,73.69
2018-11-20T07:23:36.760Z,73.63
2018-11-20T07:24:17.332Z,73.54
2018-11-20T07:24:57.873Z,74.01
2018-11-20T07:25:38.441Z,74.07
2018-11-20T07:26:19.063Z,74.16
2018-11-20T07:26:59.649Z,74.2
2018-11-20T07:27:40.211Z,74.58
2018-11-20T07:28:20.762Z,73.44
2018-11-20T07:29:01.347Z,72.68
2018-11-20T07:29:41.924Z,71.92
2018-11-20T07:30:22.464Z,71.83
2018-11-20T07:31:03.138Z,71.7
2018-11-20T07:31:43.694Z,71.7
2018-11-20T07:32:24.196Z,72.36
2018-11-20T07:33:04.827Z,72.27
2018-11-20T07:33:45.382Z,72.36
2018-11-20T07:34:25.949Z,72.84
2018-11-20T07:35:06.504Z,73.12
2018-11-20T07:35:47.065Z,73.31
2018-11-20T07:36:27.829Z,73.69
2018-11-20T07:37:08.350Z,74.03
2018-11-20T07:37:48.836Z,73.46
2018-11-20T07:38:29.463Z,73.84
2018-11-20T07:39:09.985Z,74.41
2018-11-20T07:39:50.528Z,74.98
2018-11-20T07:40:31.128Z,75.17
2018-11-20T07:41:11.689Z,75.74
2018-11-20T07:41:52.253Z,75.55
2018-11-20T07:42:32.800Z,75.64
2018-11-20T07:43:13.412Z,75.93
2018-11-20T07:43:54.837Z,75.74
2018-11-20T07:44:36.015Z,75.93
2018-11-20T07:45:16.316Z,76.31
2018-11-20T07:45:56.860Z,75.93
2018-11-20T07:46:37.439Z,76.21
2018-11-20T07:47:18.007Z,76.4
2018-11-20T07:47:58.572Z,76.78
2018-11-20T07:48:39.171Z,76.5
2018-11-20T07:49:21.676Z,76.5
2018-11-20T07:50:01.846Z,76.68
2018-11-20T07:50:42.990Z,76.5
2018-11-20T07:51:23.704Z,76.59
2018-11-20T07:52:04.435Z,77.06
2018-11-20T07:52:45.135Z,76.87
2018-11-20T07:53:25.720Z,76.97
2018-11-20T07:54:06.351Z,76.97
2018-11-20T07:54:46.907Z,76.78
2018-11-20T07:55:27.611Z,77.16
2018-11-20T07:56:08.270Z,76.59
2018-11-20T07:56:48.600Z,76.97
2018-11-20T07:57:29.165Z,77.25
2018-11-20T07:58:09.755Z,77.73
2018-11-20T07:58:50.317Z,77.64
2018-11-20T07:59:30.916Z,77.64
2018-11-20T08:00:11.488Z,77.92
2018-11-20T08:00:52.043Z,77.73
2018-11-20T08:01:32.613Z,77.64
2018-11-20T08:02:13.244Z,77.54
2018-11-20T08:02:53.716Z,77.45
2018-11-20T08:03:34.274Z,77.92
2018-11-20T08:04:14.844Z,77.83
2018-11-20T08:04:55.409Z,77.83
2018-11-20T08:05:35.978Z,77.83
2018-11-20T08:06:16.545Z,77.73
2018-11-20T08:06:57.113Z,77.83
2018-11-20T08:07:37.702Z,78.49
2018-11-20T08:08:18.278Z,77.83
2018-11-20T08:08:58.820Z,78.3
2018-11-20T08:09:39.400Z,78.49
2018-11-20T08:10:20.030Z,78.39
2018-11-20T08:11:00.564Z,78.35
2018-11-20T08:11:41.118Z,78.49
2018-11-20T08:12:21.692Z,78.16
2018-11-20T08:13:02.259Z,78.26
2018-11-20T08:13:42.808Z,78.35
2018-11-20T08:14:23.367Z,78.73
2018-11-20T08:15:03.919Z,78.92
2018-11-20T08:15:44.531Z,78.83
2018-11-20T08:16:25.063Z,78.83
2018-11-20T08:17:05.640Z,78.64
2018-11-20T08:17:46.196Z,78.73
2018-11-20T08:18:26.749Z,78.83
2018-11-20T08:19:07.312Z,78.92
2018-11-20T08:19:47.889Z,78.96
2018-11-20T08:20:28.504Z,79.02
2018-11-20T08:21:09.062Z,78.92
2018-11-20T08:21:49.610Z,78.92
2018-11-20T08:22:30.168Z,78.92
2018-11-20T08:23:10.727Z,78.73
2018-11-20T08:23:51.308Z,79.11
2018-11-20T08:24:31.876Z,79.49
2018-11-20T08:25:12.492Z,79.3
2018-11-20T08:25:53.166Z,79.49
2018-11-20T08:26:33.642Z,79.44
2018-11-20T08:27:14.181Z,79.49
2018-11-20T08:27:54.755Z,79.49
2018-11-20T08:28:35.302Z,79.49
2018-11-20T08:29:15.892Z,79.21
2018-11-20T08:29:56.561Z,79.11
2018-11-20T08:30:37.119Z,79.11
2018-11-20T08:31:17.665Z,79.49
2018-11-20T08:31:58.217Z,79.58
2018-11-20T08:32:38.770Z,79.68
2018-11-20T08:33:19.332Z,79.49
2018-11-20T08:33:59.944Z,80.15
2018-11-20T08:34:40.443Z,79.87
2018-11-20T08:35:21.072Z,79.87
2018-11-20T08:36:01.584Z,79.96
2018-11-20T08:36:42.155Z,80.06
2018-11-20T08:37:22.726Z,80.06
2018-11-20T08:38:03.267Z,80.15
2018-11-20T08:38:43.831Z,79.68
2018-11-20T08:39:24.404Z,79.77
2018-11-20T08:40:04.964Z,79.96
2018-11-20T08:40:45.561Z,80.06
2018-11-20T08:41:26.112Z,80.44
2018-11-20T08:42:06.858Z,80.15
2018-11-20T08:42:47.257Z,79.96
2018-11-20T08:43:27.818Z,80.15
2018-11-20T08:44:08.388Z,79.96
2018-11-20T08:44:48.958Z,80.15
2018-11-20T08:45:29.525Z,79.96